sensor_id;sensor_type;location;lat;lon;timestamp;temperature;humidity
28247;DHT22;34504;53.178;22.058;2022-08-21T00:01:07;21.80;83.80
28247;DHT22;34504;53.178;22.058;2022-08-21T00:03:37;21.80;84.10
28247;DHT22;34504;53.178;22.058;2022-08-21T00:06:05;21.70;84.20
28247;DHT22;34504;53.178;22.058;2022-08-21T00:08:41;21.70;84.30
28247;DHT22;34504;53.178;22.058;2022-08-21T00:11:10;21.70;84.50
28247;DHT22;34504;53.178;22.058;2022-08-21T00:13:38;21.60;84.50
28247;DHT22;34504;53.178;22.058;2022-08-21T00:16:07;21.70;84.70
28247;DHT22;34504;53.178;22.058;2022-08-21T00:18:35;21.60;84.90
28247;DHT22;34504;53.178;22.058;2022-08-21T00:21:03;21.50;85.20
28247;DHT22;34504;53.178;22.058;2022-08-21T00:23:33;21.40;85.40
28247;DHT22;34504;53.178;22.058;2022-08-21T00:26:02;21.40;85.60
28247;DHT22;34504;53.178;22.058;2022-08-21T00:28:30;21.40;85.60
28247;DHT22;34504;53.178;22.058;2022-08-21T00:30:59;21.40;85.70
28247;DHT22;34504;53.178;22.058;2022-08-21T00:33:27;21.40;85.90
28247;DHT22;34504;53.178;22.058;2022-08-21T00:35:55;21.30;85.90
28247;DHT22;34504;53.178;22.058;2022-08-21T00:38:23;21.30;86.10
28247;DHT22;34504;53.178;22.058;2022-08-21T00:40:57;21.30;86.20
28247;DHT22;34504;53.178;22.058;2022-08-21T00:43:32;21.30;86.30
28247;DHT22;34504;53.178;22.058;2022-08-21T00:46:01;21.30;86.60
28247;DHT22;34504;53.178;22.058;2022-08-21T00:48:29;21.30;86.60
28247;DHT22;34504;53.178;22.058;2022-08-21T00:51:00;21.30;86.70
28247;DHT22;34504;53.178;22.058;2022-08-21T00:53:29;21.30;86.90
28247;DHT22;34504;53.178;22.058;2022-08-21T00:55:59;21.20;87.10
28247;DHT22;34504;53.178;22.058;2022-08-21T00:58:31;21.20;87.30
28247;DHT22;34504;53.178;22.058;2022-08-21T01:01:00;21.20;87.30
28247;DHT22;34504;53.178;22.058;2022-08-21T01:03:35;21.20;87.40
28247;DHT22;34504;53.178;22.058;2022-08-21T01:06:05;21.10;87.70
28247;DHT22;34504;53.178;22.058;2022-08-21T01:08:34;21.10;87.90
28247;DHT22;34504;53.178;22.058;2022-08-21T01:11:04;21.00;88.20
28247;DHT22;34504;53.178;22.058;2022-08-21T01:13:36;21.00;88.20
28247;DHT22;34504;53.178;22.058;2022-08-21T01:16:22;21.00;88.40
28247;DHT22;34504;53.178;22.058;2022-08-21T01:18:51;21.10;88.30
28247;DHT22;34504;53.178;22.058;2022-08-21T01:21:22;21.10;88.90
28247;DHT22;34504;53.178;22.058;2022-08-21T01:23:56;21.10;88.40
28247;DHT22;34504;53.178;22.058;2022-08-21T01:26:27;21.10;88.30
28247;DHT22;34504;53.178;22.058;2022-08-21T01:29:20;21.10;88.50
28247;DHT22;34504;53.178;22.058;2022-08-21T01:31:50;21.10;88.60
28247;DHT22;34504;53.178;22.058;2022-08-21T01:34:18;21.20;88.70
28247;DHT22;34504;53.178;22.058;2022-08-21T01:36:47;21.10;88.50
28247;DHT22;34504;53.178;22.058;2022-08-21T01:39:16;21.10;88.60
28247;DHT22;34504;53.178;22.058;2022-08-21T01:41:44;21.10;88.50
28247;DHT22;34504;53.178;22.058;2022-08-21T01:44:12;21.10;88.60
28247;DHT22;34504;53.178;22.058;2022-08-21T01:46:40;21.10;88.70
28247;DHT22;34504;53.178;22.058;2022-08-21T01:49:08;21.10;88.80
28247;DHT22;34504;53.178;22.058;2022-08-21T01:51:36;21.10;88.80
28247;DHT22;34504;53.178;22.058;2022-08-21T01:54:04;21.00;89.00
28247;DHT22;34504;53.178;22.058;2022-08-21T01:56:37;21.00;89.30
28247;DHT22;34504;53.178;22.058;2022-08-21T01:59:06;21.00;89.60
28247;DHT22;34504;53.178;22.058;2022-08-21T02:01:35;21.00;89.60
28247;DHT22;34504;53.178;22.058;2022-08-21T02:04:03;20.90;89.70
28247;DHT22;34504;53.178;22.058;2022-08-21T02:06:31;20.80;90.00
28247;DHT22;34504;53.178;22.058;2022-08-21T02:08:59;20.90;90.10
28247;DHT22;34504;53.178;22.058;2022-08-21T02:11:27;20.80;90.10
28247;DHT22;34504;53.178;22.058;2022-08-21T02:13:55;20.80;90.20
28247;DHT22;34504;53.178;22.058;2022-08-21T02:16:24;20.80;90.20
28247;DHT22;34504;53.178;22.058;2022-08-21T02:18:52;20.80;90.30
28247;DHT22;34504;53.178;22.058;2022-08-21T02:21:20;20.70;90.40
28247;DHT22;34504;53.178;22.058;2022-08-21T02:23:49;20.70;90.50
28247;DHT22;34504;53.178;22.058;2022-08-21T02:26:17;20.60;90.50
28247;DHT22;34504;53.178;22.058;2022-08-21T02:28:45;20.60;90.70
28247;DHT22;34504;53.178;22.058;2022-08-21T02:31:13;20.60;90.80
28247;DHT22;34504;53.178;22.058;2022-08-21T02:33:41;20.50;90.90
28247;DHT22;34504;53.178;22.058;2022-08-21T02:36:10;20.50;90.90
28247;DHT22;34504;53.178;22.058;2022-08-21T02:38:41;20.50;91.00
28247;DHT22;34504;53.178;22.058;2022-08-21T02:41:14;20.50;91.10
28247;DHT22;34504;53.178;22.058;2022-08-21T02:43:43;20.50;91.20
28247;DHT22;34504;53.178;22.058;2022-08-21T02:46:18;20.50;91.10
28247;DHT22;34504;53.178;22.058;2022-08-21T02:48:47;20.40;91.30
28247;DHT22;34504;53.178;22.058;2022-08-21T02:51:18;20.40;91.40
28247;DHT22;34504;53.178;22.058;2022-08-21T02:53:49;20.30;91.60
28247;DHT22;34504;53.178;22.058;2022-08-21T02:56:20;20.30;91.80
28247;DHT22;34504;53.178;22.058;2022-08-21T02:58:51;20.20;91.80
28247;DHT22;34504;53.178;22.058;2022-08-21T03:01:21;20.20;92.00
28247;DHT22;34504;53.178;22.058;2022-08-21T03:03:49;20.10;92.00
28247;DHT22;34504;53.178;22.058;2022-08-21T03:06:19;20.00;92.20
28247;DHT22;34504;53.178;22.058;2022-08-21T03:08:48;20.00;92.40
28247;DHT22;34504;53.178;22.058;2022-08-21T03:11:16;19.90;92.80
28247;DHT22;34504;53.178;22.058;2022-08-21T03:13:44;19.90;92.60
28247;DHT22;34504;53.178;22.058;2022-08-21T03:16:13;19.80;92.70
28247;DHT22;34504;53.178;22.058;2022-08-21T03:18:41;19.90;92.80
28247;DHT22;34504;53.178;22.058;2022-08-21T03:21:08;19.80;92.90
28247;DHT22;34504;53.178;22.058;2022-08-21T03:23:37;19.80;93.00
28247;DHT22;34504;53.178;22.058;2022-08-21T03:26:07;19.70;93.10
28247;DHT22;34504;53.178;22.058;2022-08-21T03:28:37;19.70;93.30
28247;DHT22;34504;53.178;22.058;2022-08-21T03:31:05;19.60;93.30
28247;DHT22;34504;53.178;22.058;2022-08-21T03:33:33;19.60;93.40
28247;DHT22;34504;53.178;22.058;2022-08-21T03:36:05;19.60;93.50
28247;DHT22;34504;53.178;22.058;2022-08-21T03:38:35;19.60;93.50
28247;DHT22;34504;53.178;22.058;2022-08-21T03:41:04;19.60;93.60
28247;DHT22;34504;53.178;22.058;2022-08-21T03:43:35;19.60;93.60
28247;DHT22;34504;53.178;22.058;2022-08-21T03:46:04;19.60;93.60
28247;DHT22;34504;53.178;22.058;2022-08-21T03:48:34;19.60;93.70
28247;DHT22;34504;53.178;22.058;2022-08-21T03:51:03;19.50;93.80
28247;DHT22;34504;53.178;22.058;2022-08-21T03:53:32;19.60;93.80
28247;DHT22;34504;53.178;22.058;2022-08-21T03:56:00;19.60;93.80
28247;DHT22;34504;53.178;22.058;2022-08-21T03:58:29;19.60;93.70
28247;DHT22;34504;53.178;22.058;2022-08-21T04:00:59;19.70;93.70
28247;DHT22;34504;53.178;22.058;2022-08-21T04:03:27;19.70;93.70
28247;DHT22;34504;53.178;22.058;2022-08-21T04:05:56;19.70;93.70
28247;DHT22;34504;53.178;22.058;2022-08-21T04:08:24;19.80;93.70
28247;DHT22;34504;53.178;22.058;2022-08-21T04:10:54;19.80;93.60
28247;DHT22;34504;53.178;22.058;2022-08-21T04:13:23;19.90;93.50
28247;DHT22;34504;53.178;22.058;2022-08-21T04:15:51;19.80;93.50
28247;DHT22;34504;53.178;22.058;2022-08-21T04:18:19;19.80;93.60
28247;DHT22;34504;53.178;22.058;2022-08-21T04:20:50;19.80;93.70
28247;DHT22;34504;53.178;22.058;2022-08-21T04:23:39;19.80;93.70
28247;DHT22;34504;53.178;22.058;2022-08-21T04:26:08;19.80;93.60
28247;DHT22;34504;53.178;22.058;2022-08-21T04:28:35;19.80;93.60
28247;DHT22;34504;53.178;22.058;2022-08-21T04:31:03;19.90;93.60
28247;DHT22;34504;53.178;22.058;2022-08-21T04:33:32;20.00;93.60
28247;DHT22;34504;53.178;22.058;2022-08-21T04:36:00;20.00;93.50
28247;DHT22;34504;53.178;22.058;2022-08-21T04:38:29;20.10;93.50
28247;DHT22;34504;53.178;22.058;2022-08-21T04:41:04;20.20;93.40
28247;DHT22;34504;53.178;22.058;2022-08-21T04:43:33;20.20;93.20
28247;DHT22;34504;53.178;22.058;2022-08-21T04:46:01;20.10;93.30
28247;DHT22;34504;53.178;22.058;2022-08-21T04:48:30;20.20;93.40
28247;DHT22;34504;53.178;22.058;2022-08-21T04:53:33;20.30;93.20
28247;DHT22;34504;53.178;22.058;2022-08-21T04:56:05;20.40;93.10
28247;DHT22;34504;53.178;22.058;2022-08-21T04:58:37;20.40;93.20
28247;DHT22;34504;53.178;22.058;2022-08-21T05:01:09;20.40;93.10
28247;DHT22;34504;53.178;22.058;2022-08-21T05:03:40;20.50;93.10
28247;DHT22;34504;53.178;22.058;2022-08-21T05:06:11;20.50;93.00
28247;DHT22;34504;53.178;22.058;2022-08-21T05:08:40;20.60;93.00
28247;DHT22;34504;53.178;22.058;2022-08-21T05:11:09;20.70;93.20
28247;DHT22;34504;53.178;22.058;2022-08-21T05:13:37;20.70;92.90
28247;DHT22;34504;53.178;22.058;2022-08-21T05:16:05;20.80;92.70
28247;DHT22;34504;53.178;22.058;2022-08-21T05:18:33;20.80;92.60
28247;DHT22;34504;53.178;22.058;2022-08-21T05:21:02;20.70;92.70
28247;DHT22;34504;53.178;22.058;2022-08-21T05:23:30;20.80;92.70
28247;DHT22;34504;53.178;22.058;2022-08-21T05:25:58;20.80;92.80
28247;DHT22;34504;53.178;22.058;2022-08-21T05:28:27;20.90;92.70
28247;DHT22;34504;53.178;22.058;2022-08-21T05:30:56;20.90;92.70
28247;DHT22;34504;53.178;22.058;2022-08-21T05:33:24;20.90;92.70
28247;DHT22;34504;53.178;22.058;2022-08-21T05:35:53;20.90;92.70
28247;DHT22;34504;53.178;22.058;2022-08-21T05:38:26;21.00;92.60
28247;DHT22;34504;53.178;22.058;2022-08-21T05:40:56;20.90;92.50
28247;DHT22;34504;53.178;22.058;2022-08-21T05:43:24;20.90;92.70
28247;DHT22;34504;53.178;22.058;2022-08-21T05:45:52;20.90;92.80
28247;DHT22;34504;53.178;22.058;2022-08-21T05:48:23;20.90;92.70
28247;DHT22;34504;53.178;22.058;2022-08-21T05:50:52;20.90;92.80
28247;DHT22;34504;53.178;22.058;2022-08-21T05:53:25;20.90;92.80
28247;DHT22;34504;53.178;22.058;2022-08-21T05:55:52;21.00;92.90
28247;DHT22;34504;53.178;22.058;2022-08-21T05:58:21;21.10;92.90
28247;DHT22;34504;53.178;22.058;2022-08-21T06:00:51;21.10;92.70
28247;DHT22;34504;53.178;22.058;2022-08-21T06:03:23;21.20;92.70
28247;DHT22;34504;53.178;22.058;2022-08-21T06:05:53;21.30;92.50
28247;DHT22;34504;53.178;22.058;2022-08-21T06:08:22;21.30;92.30
28247;DHT22;34504;53.178;22.058;2022-08-21T06:10:52;21.30;92.30
28247;DHT22;34504;53.178;22.058;2022-08-21T06:13:21;21.40;92.20
28247;DHT22;34504;53.178;22.058;2022-08-21T06:15:59;21.40;92.20
28247;DHT22;34504;53.178;22.058;2022-08-21T06:18:28;21.50;92.10
28247;DHT22;34504;53.178;22.058;2022-08-21T06:20:56;21.50;92.20
28247;DHT22;34504;53.178;22.058;2022-08-21T06:23:27;21.70;92.20
28247;DHT22;34504;53.178;22.058;2022-08-21T06:26:01;21.80;92.00
28247;DHT22;34504;53.178;22.058;2022-08-21T06:28:30;21.90;91.80
28247;DHT22;34504;53.178;22.058;2022-08-21T06:30:58;22.00;91.80
28247;DHT22;34504;53.178;22.058;2022-08-21T06:33:26;22.00;91.60
28247;DHT22;34504;53.178;22.058;2022-08-21T06:35:59;22.00;91.30
28247;DHT22;34504;53.178;22.058;2022-08-21T06:38:28;22.00;91.30
28247;DHT22;34504;53.178;22.058;2022-08-21T06:40:58;22.00;91.50
28247;DHT22;34504;53.178;22.058;2022-08-21T06:43:26;22.00;91.50
28247;DHT22;34504;53.178;22.058;2022-08-21T06:46:07;22.10;91.40
28247;DHT22;34504;53.178;22.058;2022-08-21T06:48:35;22.10;91.40
28247;DHT22;34504;53.178;22.058;2022-08-21T06:51:04;22.20;91.40
28247;DHT22;34504;53.178;22.058;2022-08-21T06:53:32;22.20;91.20
28247;DHT22;34504;53.178;22.058;2022-08-21T06:56:00;22.20;91.10
28247;DHT22;34504;53.178;22.058;2022-08-21T06:58:29;22.30;91.20
28247;DHT22;34504;53.178;22.058;2022-08-21T07:00:58;22.30;90.90
28247;DHT22;34504;53.178;22.058;2022-08-21T07:03:33;22.30;90.90
28247;DHT22;34504;53.178;22.058;2022-08-21T07:06:02;22.40;90.90
28247;DHT22;34504;53.178;22.058;2022-08-21T07:08:31;22.40;90.70
28247;DHT22;34504;53.178;22.058;2022-08-21T07:11:00;22.40;90.60
28247;DHT22;34504;53.178;22.058;2022-08-21T07:13:29;22.50;90.60
28247;DHT22;34504;53.178;22.058;2022-08-21T07:15:58;22.50;90.30
28247;DHT22;34504;53.178;22.058;2022-08-21T07:18:30;22.50;90.60
28247;DHT22;34504;53.178;22.058;2022-08-21T07:21:01;22.50;90.50
28247;DHT22;34504;53.178;22.058;2022-08-21T07:23:32;22.50;90.20
28247;DHT22;34504;53.178;22.058;2022-08-21T07:26:01;22.40;90.40
28247;DHT22;34504;53.178;22.058;2022-08-21T07:28:30;22.30;90.40
28247;DHT22;34504;53.178;22.058;2022-08-21T07:31:00;22.20;90.40
28247;DHT22;34504;53.178;22.058;2022-08-21T07:33:30;22.20;90.50
28247;DHT22;34504;53.178;22.058;2022-08-21T07:35:58;22.30;90.40
28247;DHT22;34504;53.178;22.058;2022-08-21T07:38:27;22.30;90.40
28247;DHT22;34504;53.178;22.058;2022-08-21T07:40:56;22.30;90.20
28247;DHT22;34504;53.178;22.058;2022-08-21T07:43:27;22.40;90.30
28247;DHT22;34504;53.178;22.058;2022-08-21T07:45:55;22.50;90.40
28247;DHT22;34504;53.178;22.058;2022-08-21T07:48:25;22.40;90.20
28247;DHT22;34504;53.178;22.058;2022-08-21T07:50:53;22.40;90.30
28247;DHT22;34504;53.178;22.058;2022-08-21T07:53:22;22.40;90.20
28247;DHT22;34504;53.178;22.058;2022-08-21T07:55:51;22.40;90.20
28247;DHT22;34504;53.178;22.058;2022-08-21T07:58:19;22.30;90.30
28247;DHT22;34504;53.178;22.058;2022-08-21T08:00:47;22.30;90.40
28247;DHT22;34504;53.178;22.058;2022-08-21T08:03:15;22.40;90.20
28247;DHT22;34504;53.178;22.058;2022-08-21T08:05:56;22.30;90.20
28247;DHT22;34504;53.178;22.058;2022-08-21T08:08:25;22.20;90.30
28247;DHT22;34504;53.178;22.058;2022-08-21T08:10:53;22.10;90.40
28247;DHT22;34504;53.178;22.058;2022-08-21T08:13:24;22.10;90.30
28247;DHT22;34504;53.178;22.058;2022-08-21T08:15:53;22.10;90.50
28247;DHT22;34504;53.178;22.058;2022-08-21T08:18:21;22.10;90.50
28247;DHT22;34504;53.178;22.058;2022-08-21T08:20:49;22.10;90.40
28247;DHT22;34504;53.178;22.058;2022-08-21T08:23:17;22.10;90.30
28247;DHT22;34504;53.178;22.058;2022-08-21T08:25:45;22.10;90.40
28247;DHT22;34504;53.178;22.058;2022-08-21T08:28:14;22.10;90.50
28247;DHT22;34504;53.178;22.058;2022-08-21T08:30:45;22.20;90.30
28247;DHT22;34504;53.178;22.058;2022-08-21T08:33:14;22.30;90.10
28247;DHT22;34504;53.178;22.058;2022-08-21T08:35:46;22.30;90.00
28247;DHT22;34504;53.178;22.058;2022-08-21T08:38:17;22.30;90.00
28247;DHT22;34504;53.178;22.058;2022-08-21T08:41:06;22.20;89.90
28247;DHT22;34504;53.178;22.058;2022-08-21T08:43:37;22.20;89.80
28247;DHT22;34504;53.178;22.058;2022-08-21T08:46:11;22.20;90.20
28247;DHT22;34504;53.178;22.058;2022-08-21T08:54:17;22.40;89.70
28247;DHT22;34504;53.178;22.058;2022-08-21T08:56:48;22.40;89.60
28247;DHT22;34504;53.178;22.058;2022-08-21T08:59:23;22.50;89.90
28247;DHT22;34504;53.178;22.058;2022-08-21T09:01:54;22.60;89.60
28247;DHT22;34504;53.178;22.058;2022-08-21T09:04:25;22.60;89.00
28247;DHT22;34504;53.178;22.058;2022-08-21T09:13:09;22.70;88.80
28247;DHT22;34504;53.178;22.058;2022-08-21T09:29:20;23.10;88.60
28247;DHT22;34504;53.178;22.058;2022-08-21T09:31:50;23.20;88.50
28247;DHT22;34504;53.178;22.058;2022-08-21T09:34:29;23.30;87.50
28247;DHT22;34504;53.178;22.058;2022-08-21T09:36:59;23.40;87.10
28247;DHT22;34504;53.178;22.058;2022-08-21T09:39:37;23.40;86.30
28247;DHT22;34504;53.178;22.058;2022-08-21T09:42:10;23.40;86.80
28247;DHT22;34504;53.178;22.058;2022-08-21T09:44:41;23.50;86.20
28247;DHT22;34504;53.178;22.058;2022-08-21T09:47:12;23.40;86.00
28247;DHT22;34504;53.178;22.058;2022-08-21T09:49:43;23.50;86.40
28247;DHT22;34504;53.178;22.058;2022-08-21T09:52:22;23.50;86.10
28247;DHT22;34504;53.178;22.058;2022-08-21T09:54:54;23.70;85.80
28247;DHT22;34504;53.178;22.058;2022-08-21T09:57:26;23.70;85.20
28247;DHT22;34504;53.178;22.058;2022-08-21T10:00:27;23.80;85.40
28247;DHT22;34504;53.178;22.058;2022-08-21T10:03:20;23.90;85.40
28247;DHT22;34504;53.178;22.058;2022-08-21T10:06:01;24.00;83.80
28247;DHT22;34504;53.178;22.058;2022-08-21T10:08:38;24.10;83.10
28247;DHT22;34504;53.178;22.058;2022-08-21T10:11:10;24.10;83.50
28247;DHT22;34504;53.178;22.058;2022-08-21T10:17:13;24.30;82.70
28247;DHT22;34504;53.178;22.058;2022-08-21T10:20:04;24.40;82.00
28247;DHT22;34504;53.178;22.058;2022-08-21T10:25:52;24.60;80.90
28247;DHT22;34504;53.178;22.058;2022-08-21T10:28:52;24.70;80.10
28247;DHT22;34504;53.178;22.058;2022-08-21T10:32:14;24.70;80.00
28247;DHT22;34504;53.178;22.058;2022-08-21T10:37:01;24.90;78.90
28247;DHT22;34504;53.178;22.058;2022-08-21T10:42:58;24.80;78.80
28247;DHT22;34504;53.178;22.058;2022-08-21T10:48:55;24.80;77.90
28247;DHT22;34504;53.178;22.058;2022-08-21T10:57:48;25.00;77.00
28247;DHT22;34504;53.178;22.058;2022-08-21T11:00:23;25.00;76.90
28247;DHT22;34504;53.178;22.058;2022-08-21T11:03:15;25.00;77.30
28247;DHT22;34504;53.178;22.058;2022-08-21T11:05:57;25.00;77.10
28247;DHT22;34504;53.178;22.058;2022-08-21T11:08:40;25.00;77.20
28247;DHT22;34504;53.178;22.058;2022-08-21T11:11:20;24.90;77.60
28247;DHT22;34504;53.178;22.058;2022-08-21T11:14:03;25.00;77.60
28247;DHT22;34504;53.178;22.058;2022-08-21T11:17:20;25.10;76.80
28247;DHT22;34504;53.178;22.058;2022-08-21T11:19:53;25.10;76.10
28247;DHT22;34504;53.178;22.058;2022-08-21T11:22:44;25.10;75.70
28247;DHT22;34504;53.178;22.058;2022-08-21T11:26:08;25.20;76.00
28247;DHT22;34504;53.178;22.058;2022-08-21T11:36:38;25.60;75.30
28247;DHT22;34504;53.178;22.058;2022-08-21T11:39:26;25.60;74.70
28247;DHT22;34504;53.178;22.058;2022-08-21T11:45:03;25.70;74.60
28247;DHT22;34504;53.178;22.058;2022-08-21T11:50:29;25.60;73.70
28247;DHT22;34504;53.178;22.058;2022-08-21T11:53:09;25.60;75.00
28247;DHT22;34504;53.178;22.058;2022-08-21T11:55:48;25.60;75.00
28247;DHT22;34504;53.178;22.058;2022-08-21T11:59:11;25.60;74.50
28247;DHT22;34504;53.178;22.058;2022-08-21T12:01:29;25.60;74.50
28247;DHT22;34504;53.178;22.058;2022-08-21T12:04:19;25.60;74.60
28247;DHT22;34504;53.178;22.058;2022-08-21T12:06:52;25.60;74.40
28247;DHT22;34504;53.178;22.058;2022-08-21T12:15:15;25.50;73.80
28247;DHT22;34504;53.178;22.058;2022-08-21T12:23:25;25.60;75.30
28247;DHT22;34504;53.178;22.058;2022-08-21T12:26:23;25.70;74.60
28247;DHT22;34504;53.178;22.058;2022-08-21T12:29:02;25.80;73.70
28247;DHT22;34504;53.178;22.058;2022-08-21T12:31:30;25.80;74.40
28247;DHT22;34504;53.178;22.058;2022-08-21T12:34:01;26.00;74.90
28247;DHT22;34504;53.178;22.058;2022-08-21T12:36:42;26.00;74.00
28247;DHT22;34504;53.178;22.058;2022-08-21T12:39:15;26.00;73.80
28247;DHT22;34504;53.178;22.058;2022-08-21T12:52:58;26.00;72.50
28247;DHT22;34504;53.178;22.058;2022-08-21T12:55:30;25.80;73.30
28247;DHT22;34504;53.178;22.058;2022-08-21T13:12:00;25.50;74.40
28247;DHT22;34504;53.178;22.058;2022-08-21T13:14:37;25.50;73.90
28247;DHT22;34504;53.178;22.058;2022-08-21T13:17:16;25.40;73.60
28247;DHT22;34504;53.178;22.058;2022-08-21T13:19:55;25.30;73.80
28247;DHT22;34504;53.178;22.058;2022-08-21T13:22:24;25.40;73.90
28247;DHT22;34504;53.178;22.058;2022-08-21T13:25:02;25.40;73.30
28247;DHT22;34504;53.178;22.058;2022-08-21T13:27:33;25.40;73.20
28247;DHT22;34504;53.178;22.058;2022-08-21T13:30:07;25.50;73.80
28247;DHT22;34504;53.178;22.058;2022-08-21T13:32:40;25.70;73.30
28247;DHT22;34504;53.178;22.058;2022-08-21T13:37:46;25.70;71.90
28247;DHT22;34504;53.178;22.058;2022-08-21T13:40:17;25.60;72.20
28247;DHT22;34504;53.178;22.058;2022-08-21T13:42:47;25.60;72.00
28247;DHT22;34504;53.178;22.058;2022-08-21T13:45:26;25.60;72.00
28247;DHT22;34504;53.178;22.058;2022-08-21T13:47:54;25.50;72.10
28247;DHT22;34504;53.178;22.058;2022-08-21T13:50:24;25.40;72.60
28247;DHT22;34504;53.178;22.058;2022-08-21T13:53:00;25.40;72.40
28247;DHT22;34504;53.178;22.058;2022-08-21T13:55:43;25.30;72.20
28247;DHT22;34504;53.178;22.058;2022-08-21T13:58:11;25.40;72.90
28247;DHT22;34504;53.178;22.058;2022-08-21T14:00:53;25.30;72.20
28247;DHT22;34504;53.178;22.058;2022-08-21T14:03:41;25.30;71.50
28247;DHT22;34504;53.178;22.058;2022-08-21T14:06:20;25.30;71.30
28247;DHT22;34504;53.178;22.058;2022-08-21T14:08:58;25.30;71.80
28247;DHT22;34504;53.178;22.058;2022-08-21T14:11:32;25.30;71.70
28247;DHT22;34504;53.178;22.058;2022-08-21T14:14:18;25.40;71.70
28247;DHT22;34504;53.178;22.058;2022-08-21T14:16:57;25.40;70.90
28247;DHT22;34504;53.178;22.058;2022-08-21T14:19:38;25.30;70.80
28247;DHT22;34504;53.178;22.058;2022-08-21T14:22:42;25.30;70.50
28247;DHT22;34504;53.178;22.058;2022-08-21T14:27:53;25.20;70.70
28247;DHT22;34504;53.178;22.058;2022-08-21T14:30:33;25.20;70.90
28247;DHT22;34504;53.178;22.058;2022-08-21T14:33:02;25.10;70.70
28247;DHT22;34504;53.178;22.058;2022-08-21T14:35:30;25.10;71.00
28247;DHT22;34504;53.178;22.058;2022-08-21T14:37:58;25.10;71.30
28247;DHT22;34504;53.178;22.058;2022-08-21T14:40:27;25.10;71.20
28247;DHT22;34504;53.178;22.058;2022-08-21T14:42:56;25.10;71.10
28247;DHT22;34504;53.178;22.058;2022-08-21T14:45:27;25.10;71.00
28247;DHT22;34504;53.178;22.058;2022-08-21T14:47:57;25.10;71.30
28247;DHT22;34504;53.178;22.058;2022-08-21T14:50:26;25.10;71.00
28247;DHT22;34504;53.178;22.058;2022-08-21T14:52:55;25.00;71.00
28247;DHT22;34504;53.178;22.058;2022-08-21T14:55:23;25.00;70.90
28247;DHT22;34504;53.178;22.058;2022-08-21T14:57:52;25.00;70.90
28247;DHT22;34504;53.178;22.058;2022-08-21T15:00:22;25.10;70.70
28247;DHT22;34504;53.178;22.058;2022-08-21T15:03:02;25.10;70.40
28247;DHT22;34504;53.178;22.058;2022-08-21T15:05:30;25.00;70.00
28247;DHT22;34504;53.178;22.058;2022-08-21T15:08:01;25.00;70.10
28247;DHT22;34504;53.178;22.058;2022-08-21T15:10:30;25.00;69.90
28247;DHT22;34504;53.178;22.058;2022-08-21T15:13:01;25.00;69.90
28247;DHT22;34504;53.178;22.058;2022-08-21T15:15:35;25.00;70.50
28247;DHT22;34504;53.178;22.058;2022-08-21T15:18:06;25.00;69.40
28247;DHT22;34504;53.178;22.058;2022-08-21T15:20:35;25.10;69.20
28247;DHT22;34504;53.178;22.058;2022-08-21T15:23:04;25.00;69.30
28247;DHT22;34504;53.178;22.058;2022-08-21T15:25:34;25.00;69.10
28247;DHT22;34504;53.178;22.058;2022-08-21T15:28:03;25.00;69.30
28247;DHT22;34504;53.178;22.058;2022-08-21T15:30:32;25.10;69.80
28247;DHT22;34504;53.178;22.058;2022-08-21T15:33:00;25.10;69.50
28247;DHT22;34504;53.178;22.058;2022-08-21T15:35:28;25.10;69.50
28247;DHT22;34504;53.178;22.058;2022-08-21T15:37:56;25.10;69.40
28247;DHT22;34504;53.178;22.058;2022-08-21T15:40:25;25.10;69.20
28247;DHT22;34504;53.178;22.058;2022-08-21T15:43:02;25.10;69.50
28247;DHT22;34504;53.178;22.058;2022-08-21T15:45:31;25.10;69.80
28247;DHT22;34504;53.178;22.058;2022-08-21T15:47:59;25.00;70.10
28247;DHT22;34504;53.178;22.058;2022-08-21T15:50:29;25.10;70.50
28247;DHT22;34504;53.178;22.058;2022-08-21T15:52:58;25.10;70.30
28247;DHT22;34504;53.178;22.058;2022-08-21T15:55:26;25.10;70.20
28247;DHT22;34504;53.178;22.058;2022-08-21T15:57:54;25.10;69.90
28247;DHT22;34504;53.178;22.058;2022-08-21T16:00:26;25.10;70.10
28247;DHT22;34504;53.178;22.058;2022-08-21T16:02:57;25.00;70.10
28247;DHT22;34504;53.178;22.058;2022-08-21T16:05:26;25.00;70.20
28247;DHT22;34504;53.178;22.058;2022-08-21T16:07:54;24.90;70.30
28247;DHT22;34504;53.178;22.058;2022-08-21T16:10:23;25.00;70.60
28247;DHT22;34504;53.178;22.058;2022-08-21T16:13:04;25.00;70.70
28247;DHT22;34504;53.178;22.058;2022-08-21T16:15:34;25.00;70.60
28247;DHT22;34504;53.178;22.058;2022-08-21T16:18:04;25.00;71.00
28247;DHT22;34504;53.178;22.058;2022-08-21T16:20:32;25.00;71.10
28247;DHT22;34504;53.178;22.058;2022-08-21T16:23:00;24.90;71.40
28247;DHT22;34504;53.178;22.058;2022-08-21T16:25:29;24.90;71.20
28247;DHT22;34504;53.178;22.058;2022-08-21T16:28:01;24.90;70.90
28247;DHT22;34504;53.178;22.058;2022-08-21T16:30:30;24.90;70.90
28247;DHT22;34504;53.178;22.058;2022-08-21T16:33:01;24.90;71.10
28247;DHT22;34504;53.178;22.058;2022-08-21T16:35:30;24.90;71.20
28247;DHT22;34504;53.178;22.058;2022-08-21T16:37:58;24.90;71.20
28247;DHT22;34504;53.178;22.058;2022-08-21T16:40:26;24.90;70.90
28247;DHT22;34504;53.178;22.058;2022-08-21T16:42:55;24.90;70.90
28247;DHT22;34504;53.178;22.058;2022-08-21T16:45:23;24.90;71.00
28247;DHT22;34504;53.178;22.058;2022-08-21T16:47:56;24.80;71.10
28247;DHT22;34504;53.178;22.058;2022-08-21T16:50:24;24.90;71.20
28247;DHT22;34504;53.178;22.058;2022-08-21T16:52:52;24.80;71.30
28247;DHT22;34504;53.178;22.058;2022-08-21T16:55:20;24.80;71.30
28247;DHT22;34504;53.178;22.058;2022-08-21T16:57:49;24.70;71.40
28247;DHT22;34504;53.178;22.058;2022-08-21T17:00:17;24.70;71.60
28247;DHT22;34504;53.178;22.058;2022-08-21T17:02:50;24.70;71.60
28247;DHT22;34504;53.178;22.058;2022-08-21T17:05:20;24.70;71.70
28247;DHT22;34504;53.178;22.058;2022-08-21T17:07:48;24.70;71.80
28247;DHT22;34504;53.178;22.058;2022-08-21T17:10:17;24.70;71.90
28247;DHT22;34504;53.178;22.058;2022-08-21T17:12:50;24.60;72.00
28247;DHT22;34504;53.178;22.058;2022-08-21T17:15:25;24.60;72.30
28247;DHT22;34504;53.178;22.058;2022-08-21T17:17:54;24.50;72.60
28247;DHT22;34504;53.178;22.058;2022-08-21T17:20:24;24.40;73.00
28247;DHT22;34504;53.178;22.058;2022-08-21T17:22:52;24.40;73.30
28247;DHT22;34504;53.178;22.058;2022-08-21T17:25:21;24.30;73.60
28247;DHT22;34504;53.178;22.058;2022-08-21T17:27:50;24.40;73.40
28247;DHT22;34504;53.178;22.058;2022-08-21T17:30:19;24.40;73.60